Time;durP1;ratioP1;P1;durP2;ratioP2;P2;SDS_P1;SDS_P2;PMS_P1;PMS_P2;Temp;Humidity;BMP_temperature;BMP_pressure;BME280_temperature;BME280_humidity;BME280_pressure;Samples;Min_cycle;Max_cycle;Signal;HPM_P1;HPM_P2
2022/11/15 00:00:51;;;;;;;0.00;0.00;;;10.40;99.90;;;;;;5052473;28;20223;-70
2022/11/15 00:03:18;;;;;;;0.00;0.00;;;10.40;99.90;;;;;;5052386;28;20178;-70
2022/11/15 00:05:44;;;;;;;0.00;0.00;;;10.50;99.90;;;;;;5053983;28;20193;-70
2022/11/15 00:08:10;;;;;;;0.10;0.10;;;10.50;99.90;;;;;;5053045;28;20221;-70
2022/11/15 00:10:37;;;;;;;0.10;0.10;;;10.50;99.90;;;;;;5053844;28;20676;-70
2022/11/15 00:13:07;;;;;;;0.00;0.00;;;10.50;99.90;;;;;;5053910;28;20632;-70
2022/11/15 00:15:36;;;;;;;0.00;0.00;;;10.50;99.90;;;;;;5053682;28;20700;-70
2022/11/15 00:18:02;;;;;;;0.00;0.00;;;10.40;99.90;;;;;;5053400;28;20579;-70
2022/11/15 00:20:27;;;;;;;0.00;0.00;;;10.40;99.90;;;;;;5053115;28;20225;-69
2022/11/15 00:22:53;;;;;;;0.00;0.00;;;10.30;99.90;;;;;;5052955;28;20204;-70
2022/11/15 00:25:18;;;;;;;0.00;0.00;;;10.30;99.90;;;;;;5053079;28;20182;-70
2022/11/15 00:27:45;;;;;;;0.00;0.00;;;10.30;99.90;;;;;;5053110;28;20181;-69
2022/11/15 00:30:11;;;;;;;0.00;0.00;;;10.30;99.90;;;;;;5052765;28;20665;-70
2022/11/15 00:32:36;;;;;;;0.00;0.00;;;10.20;99.90;;;;;;5052494;28;20239;-69
2022/11/15 00:35:02;;;;;;;0.13;0.13;;;10.20;99.90;;;;;;5053178;28;20174;-69
2022/11/15 00:37:28;;;;;;;0.10;0.10;;;10.20;99.90;;;;;;5053367;28;20212;-69
2022/11/15 00:39:53;;;;;;;0.00;0.00;;;10.10;99.90;;;;;;5052832;28;20216;-70
2022/11/15 00:42:19;;;;;;;0.00;0.00;;;10.10;99.90;;;;;;5052482;28;20182;-70
2022/11/15 00:44:44;;;;;;;0.00;0.00;;;10.10;99.90;;;;;;5052710;28;20268;-70
2022/11/15 00:47:10;;;;;;;0.20;0.20;;;10.00;99.90;;;;;;5052719;28;20201;-69
2022/11/15 00:49:35;;;;;;;0.00;0.00;;;10.00;99.90;;;;;;5051205;28;20205;-69
2022/11/15 00:52:01;;;;;;;0.00;0.00;;;10.00;99.90;;;;;;5052492;28;20216;-70
2022/11/15 00:54:27;;;;;;;0.20;0.20;;;9.90;99.90;;;;;;5052433;28;20239;-70
2022/11/15 00:56:52;;;;;;;0.00;0.00;;;9.90;99.90;;;;;;5053091;28;20182;-70
2022/11/15 00:59:18;;;;;;;0.20;0.20;;;9.90;99.90;;;;;;5052445;28;20213;-69
2022/11/15 01:01:43;;;;;;;0.00;0.00;;;9.80;99.90;;;;;;5052872;28;20185;-69
2022/11/15 01:04:09;;;;;;;0.00;0.00;;;9.80;99.90;;;;;;5050990;28;20625;-70
2022/11/15 01:06:34;;;;;;;0.00;0.00;;;9.70;99.90;;;;;;5052488;28;20181;-69
2022/11/15 01:09:00;;;;;;;0.00;0.00;;;9.80;99.90;;;;;;5052175;28;20225;-69
2022/11/15 01:11:25;;;;;;;0.00;0.00;;;9.70;99.90;;;;;;5052238;28;20177;-69
2022/11/15 01:13:51;;;;;;;0.00;0.00;;;9.70;99.90;;;;;;5052124;28;20534;-69
2022/11/15 01:16:18;;;;;;;0.30;0.13;;;9.60;99.90;;;;;;5051796;28;20645;-69
2022/11/15 01:18:45;;;;;;;0.35;0.30;;;9.60;99.90;;;;;;5050970;28;20560;-69
2022/11/15 01:21:13;;;;;;;0.03;0.03;;;9.50;99.90;;;;;;5052444;28;20190;-69
2022/11/15 01:23:39;;;;;;;0.00;0.00;;;9.50;99.90;;;;;;5051747;28;20683;-69
2022/11/15 01:26:07;;;;;;;0.00;0.00;;;9.50;99.90;;;;;;5051983;28;20540;-69
2022/11/15 01:28:34;;;;;;;0.00;0.00;;;9.40;99.90;;;;;;5051910;28;20216;-69
2022/11/15 01:31:02;;;;;;;0.10;0.10;;;9.30;99.90;;;;;;5052079;28;20212;-69
2022/11/15 01:33:28;;;;;;;0.00;0.00;;;9.30;99.90;;;;;;5050505;28;20177;-69
2022/11/15 01:35:55;;;;;;;0.22;0.22;;;9.20;99.90;;;;;;5050274;28;20195;-69
2022/11/15 01:38:21;;;;;;;0.00;0.00;;;9.20;99.90;;;;;;5051236;28;20189;-69
2022/11/15 01:40:46;;;;;;;0.10;0.10;;;9.10;99.90;;;;;;5051678;28;20192;-69
2022/11/15 01:43:26;;;;;;;0.45;0.35;;;9.10;99.90;;;;;;5051349;28;20329;-69
2022/11/15 01:46:02;;;;;;;0.00;0.00;;;9.10;99.90;;;;;;5044773;28;20265;-69
2022/11/15 01:48:33;;;;;;;0.00;0.00;;;9.00;99.90;;;;;;5051321;28;20254;-69
2022/11/15 01:51:02;;;;;;;0.00;0.00;;;9.00;99.90;;;;;;5051001;28;20193;-69
2022/11/15 01:53:29;;;;;;;0.03;0.03;;;9.00;99.90;;;;;;5051359;28;20205;-69
2022/11/15 01:55:56;;;;;;;0.05;0.05;;;8.90;99.90;;;;;;5051058;28;20185;-69
2022/11/15 01:58:22;;;;;;;0.00;0.00;;;8.90;99.90;;;;;;5051321;28;20181;-69
2022/11/15 02:00:49;;;;;;;0.00;0.00;;;8.90;99.90;;;;;;5051427;28;20591;-69
2022/11/15 03:14:21;;;;;;;0.00;0.00;;;8.40;99.90;;;;;;4905547;28;20228;-69
2022/11/15 03:17:16;;;;;;;0.95;0.20;;;8.40;99.90;;;;;;5053935;28;20215;-69
2022/11/15 03:19:59;;;;;;;0.00;0.00;;;8.40;99.90;;;;;;5053690;28;20206;-68
2022/11/15 03:22:27;;;;;;;0.00;0.00;;;8.40;99.90;;;;;;5045791;28;20524;-68
2022/11/15 03:24:57;;;;;;;0.00;0.00;;;8.40;99.90;;;;;;5053313;28;20277;-68
2022/11/15 03:27:27;;;;;;;0.00;0.00;;;8.40;99.90;;;;;;5054655;28;20204;-69
2022/11/15 03:30:00;;;;;;;0.00;0.00;;;8.40;99.90;;;;;;5054445;28;20671;-68
2022/11/15 03:32:29;;;;;;;0.00;0.00;;;8.50;99.90;;;;;;5053243;28;20185;-69
2022/11/15 03:35:00;;;;;;;0.00;0.00;;;8.50;99.90;;;;;;5052711;28;20181;-69
2022/11/15 03:37:55;;;;;;;0.00;0.00;;;8.60;99.90;;;;;;5054250;28;20213;-69
2022/11/15 03:40:30;;;;;;;0.00;0.00;;;8.60;99.90;;;;;;5045090;28;20266;-69
2022/11/15 03:43:24;;;;;;;0.00;0.00;;;8.60;99.90;;;;;;5053831;28;20530;-68
2022/11/15 03:46:23;;;;;;;0.50;0.50;;;8.70;99.90;;;;;;5052452;28;20268;-68
2022/11/15 03:48:58;;;;;;;0.00;0.00;;;8.70;99.90;;;;;;5053953;28;20193;-68
2022/11/15 03:51:24;;;;;;;0.08;0.08;;;8.70;99.90;;;;;;5054187;28;20169;-68
2022/11/15 03:53:50;;;;;;;0.00;0.00;;;8.70;99.90;;;;;;5053941;28;20649;-69
2022/11/15 03:56:15;;;;;;;0.00;0.00;;;8.70;99.90;;;;;;5053234;28;20667;-69
2022/11/15 03:58:41;;;;;;;0.00;0.00;;;8.70;99.90;;;;;;5054051;28;20182;-69
2022/11/15 04:01:07;;;;;;;0.00;0.00;;;8.80;99.90;;;;;;5052811;28;20734;-69
2022/11/15 04:03:32;;;;;;;0.00;0.00;;;8.80;99.90;;;;;;5053582;28;20177;-69
2022/11/15 04:05:58;;;;;;;0.00;0.00;;;8.80;99.90;;;;;;5052236;28;20664;-69
2022/11/15 04:08:23;;;;;;;0.00;0.00;;;8.90;99.90;;;;;;5053334;28;20184;-69
2022/11/15 04:10:49;;;;;;;0.00;0.00;;;8.90;99.90;;;;;;5053616;28;20178;-69
2022/11/15 04:13:15;;;;;;;0.00;0.00;;;8.90;99.90;;;;;;5052742;28;20243;-69
2022/11/15 04:15:40;;;;;;;0.00;0.00;;;8.90;99.90;;;;;;5053756;28;20191;-69
2022/11/15 04:18:06;;;;;;;0.00;0.00;;;9.00;99.90;;;;;;5053194;28;20184;-69
2022/11/15 04:26:10;;;;;;;0.00;0.00;;;9.00;99.90;;;;;;5053017;28;20193;-69
2022/11/15 04:29:33;;;;;;;0.00;0.00;;;9.00;99.90;;;;;;5053076;28;20605;-69
2022/11/15 04:31:21;;;;;;;0.00;0.00;;;9.00;99.90;;;;;;5052739;28;20177;-69
2022/11/15 04:33:47;;;;;;;0.10;0.10;;;9.00;99.90;;;;;;5053021;28;20174;-68
2022/11/15 04:38:56;;;;;;;0.10;0.10;;;9.00;99.90;;;;;;5052398;28;20695;-68
2022/11/15 04:41:22;;;;;;;0.00;0.00;;;9.10;99.90;;;;;;5052647;28;20190;-69
2022/11/15 04:43:48;;;;;;;0.10;0.10;;;9.10;99.90;;;;;;5051996;28;20227;-69
2022/11/15 04:46:13;;;;;;;0.45;0.40;;;9.10;99.90;;;;;;5052591;28;20261;-71
2022/11/15 04:48:39;;;;;;;0.00;0.00;;;9.10;99.90;;;;;;5051926;28;20224;-70
2022/11/15 04:51:04;;;;;;;0.00;0.00;;;9.10;99.90;;;;;;5052939;28;20197;-70
2022/11/15 04:53:30;;;;;;;0.17;0.17;;;9.10;99.90;;;;;;5053173;28;20213;-69
2022/11/15 04:55:55;;;;;;;0.00;0.00;;;9.10;99.90;;;;;;5054365;28;20192;-67
2022/11/15 04:58:21;;;;;;;0.08;0.08;;;9.10;99.90;;;;;;5063540;28;20177;-69
2022/11/15 05:00:46;;;;;;;0.00;0.00;;;9.10;99.90;;;;;;5052924;28;20220;-68
2022/11/15 05:05:57;;;;;;;0.00;0.00;;;9.10;99.90;;;;;;5051374;28;20262;-68
2022/11/15 05:08:23;;;;;;;0.10;0.10;;;9.10;99.90;;;;;;5052911;28;20358;-65
2022/11/15 05:10:48;;;;;;;0.00;0.00;;;9.00;99.90;;;;;;5052617;28;20188;-67
2022/11/15 05:13:14;;;;;;;0.00;0.00;;;9.00;99.90;;;;;;5050936;28;20217;-65
2022/11/15 05:15:39;;;;;;;0.00;0.00;;;9.10;99.90;;;;;;5052451;28;20182;-66
2022/11/15 05:18:05;;;;;;;0.10;0.10;;;9.10;99.90;;;;;;5052945;28;20573;-63
2022/11/15 05:20:30;;;;;;;0.00;0.00;;;9.10;99.90;;;;;;5053445;28;20229;-65
2022/11/15 05:22:56;;;;;;;0.00;0.00;;;9.00;99.90;;;;;;5033090;28;20178;-65
2022/11/15 05:25:22;;;;;;;0.00;0.00;;;9.10;99.90;;;;;;5072832;28;20172;-64
2022/11/15 05:27:48;;;;;;;0.10;0.10;;;9.00;99.90;;;;;;5068798;28;20183;-64
2022/11/15 05:30:14;;;;;;;0.10;0.10;;;9.00;99.90;;;;;;5052549;28;20185;-63
2022/11/15 05:32:40;;;;;;;0.00;0.00;;;9.00;99.90;;;;;;5065952;28;20185;-64
2022/11/15 05:35:08;;;;;;;0.00;0.00;;;9.00;99.90;;;;;;5072413;28;20184;-64
2022/11/15 05:37:34;;;;;;;0.05;0.05;;;8.90;99.90;;;;;;5072342;28;20199;-65
2022/11/15 05:39:59;;;;;;;0.00;0.00;;;9.00;99.90;;;;;;5066674;28;20217;-70
2022/11/15 05:42:26;;;;;;;0.00;0.00;;;8.90;99.90;;;;;;5052244;28;20200;-65
2022/11/15 05:44:51;;;;;;;0.00;0.00;;;9.00;99.90;;;;;;5051800;28;20265;-65
2022/11/15 05:47:24;;;;;;;0.10;0.10;;;9.00;99.90;;;;;;5052711;28;20257;-65
2022/11/15 05:49:51;;;;;;;0.00;0.00;;;9.00;99.90;;;;;;5052118;28;20256;-65
2022/11/15 05:52:21;;;;;;;0.17;0.17;;;9.00;99.90;;;;;;5052298;28;20178;-65
2022/11/15 05:54:46;;;;;;;0.32;0.20;;;8.90;99.90;;;;;;5052258;28;20645;-66
2022/11/15 05:57:12;;;;;;;0.20;0.20;;;8.90;99.90;;;;;;5052222;28;20319;-65
2022/11/15 05:59:38;;;;;;;0.20;0.20;;;8.90;99.90;;;;;;5052190;28;20722;-65
2022/11/15 06:02:03;;;;;;;1.85;0.17;;;8.90;99.90;;;;;;5052092;28;20664;-65
2022/11/15 06:04:29;;;;;;;0.13;0.13;;;9.00;99.90;;;;;;5052308;28;20181;-65
2022/11/15 06:06:54;;;;;;;0.00;0.00;;;9.00;99.90;;;;;;5051950;28;20169;-65
2022/11/15 06:09:20;;;;;;;0.10;0.10;;;9.00;99.90;;;;;;5052323;28;20279;-66
2022/11/15 06:11:45;;;;;;;0.00;0.00;;;9.00;99.90;;;;;;5051892;28;20185;-66
2022/11/15 06:14:11;;;;;;;0.00;0.00;;;9.00;99.90;;;;;;5051943;28;20274;-65
2022/11/15 06:16:36;;;;;;;0.10;0.10;;;9.00;99.90;;;;;;5052116;28;20628;-65
2022/11/15 06:19:02;;;;;;;0.20;0.20;;;9.00;99.90;;;;;;5052336;28;20560;-65
2022/11/15 06:21:28;;;;;;;0.00;0.00;;;9.00;99.90;;;;;;5047303;28;20189;-65
2022/11/15 06:23:54;;;;;;;0.00;0.00;;;9.00;99.90;;;;;;5036441;28;20252;-65
2022/11/15 06:26:20;;;;;;;0.17;0.17;;;8.90;99.90;;;;;;5038739;28;20201;-65
2022/11/15 06:28:45;;;;;;;0.00;0.00;;;8.90;99.90;;;;;;5049012;28;20173;-65
2022/11/15 06:31:11;;;;;;;0.00;0.00;;;9.00;99.90;;;;;;5058412;28;20191;-65
2022/11/15 06:33:40;;;;;;;0.15;0.15;;;9.00;99.90;;;;;;5058493;28;20545;-65
2022/11/15 06:36:09;;;;;;;0.03;0.03;;;8.90;99.90;;;;;;5058431;28;20181;-65
2022/11/15 06:38:35;;;;;;;0.03;0.03;;;8.90;99.90;;;;;;5058438;28;20264;-65
2022/11/15 06:41:07;;;;;;;0.00;0.00;;;8.90;99.90;;;;;;5058479;28;20177;-65
2022/11/15 06:43:33;;;;;;;0.03;0.03;;;8.90;99.90;;;;;;5058365;28;20660;-65
2022/11/15 06:46:00;;;;;;;0.00;0.00;;;8.90;99.90;;;;;;5058578;28;20191;-65
2022/11/15 06:48:26;;;;;;;0.08;0.08;;;8.90;99.90;;;;;;5058474;28;20185;-65
2022/11/15 06:50:54;;;;;;;0.00;0.00;;;9.00;99.90;;;;;;5058282;28;20190;-65
2022/11/15 06:53:19;;;;;;;0.20;0.20;;;9.10;99.90;;;;;;5058425;28;20273;-65
2022/11/15 06:55:45;;;;;;;0.00;0.00;;;9.10;99.90;;;;;;5058383;28;20271;-65
2022/11/15 06:58:10;;;;;;;0.00;0.00;;;9.10;99.90;;;;;;5058202;28;20177;-65
2022/11/15 07:00:36;;;;;;;0.00;0.00;;;9.10;99.90;;;;;;5058347;28;20220;-65
2022/11/15 07:03:02;;;;;;;0.00;0.00;;;9.10;99.90;;;;;;5058187;28;20170;-65
2022/11/15 07:05:27;;;;;;;0.00;0.00;;;9.20;99.90;;;;;;5058253;28;20180;-65
2022/11/15 07:07:54;;;;;;;0.00;0.00;;;9.20;99.90;;;;;;5058044;28;20166;-65
2022/11/15 07:10:24;;;;;;;0.00;0.00;;;9.20;99.90;;;;;;5058198;28;20526;-65
2022/11/15 07:12:50;;;;;;;0.00;0.00;;;9.30;99.90;;;;;;5058039;28;20638;-65
2022/11/15 07:15:17;;;;;;;0.05;0.05;;;9.30;99.90;;;;;;5057991;28;20181;-65
2022/11/15 07:17:43;;;;;;;0.00;0.00;;;9.40;99.90;;;;;;5058226;28;20307;-65
2022/11/15 07:20:10;;;;;;;0.00;0.00;;;9.50;99.90;;;;;;5057933;28;20221;-65
2022/11/15 07:22:35;;;;;;;0.00;0.00;;;9.60;99.90;;;;;;5058064;28;20174;-65
2022/11/15 07:25:01;;;;;;;0.38;0.38;;;9.70;99.90;;;;;;5058092;28;20173;-65
2022/11/15 07:27:26;;;;;;;0.10;0.10;;;9.80;99.90;;;;;;5058122;28;20640;-65
2022/11/15 07:29:52;;;;;;;0.30;0.30;;;9.80;99.90;;;;;;5057844;28;20613;-65
2022/11/15 07:32:17;;;;;;;1.00;0.50;;;10.00;99.90;;;;;;5057852;28;20667;-65
2022/11/15 07:34:44;;;;;;;0.00;0.00;;;10.00;99.90;;;;;;5055510;28;20208;-65
2022/11/15 07:37:10;;;;;;;0.20;0.20;;;10.10;99.90;;;;;;5054653;28;20201;-65
2022/11/15 07:39:36;;;;;;;0.00;0.00;;;10.10;99.90;;;;;;5054740;28;20267;-65
2022/11/15 07:44:45;;;;;;;0.30;0.30;;;10.20;99.90;;;;;;5054547;28;20212;-65
2022/11/15 07:47:11;;;;;;;0.10;0.10;;;10.30;99.90;;;;;;5054416;28;20204;-65
2022/11/15 07:49:36;;;;;;;0.28;0.28;;;10.30;99.90;;;;;;5054541;28;20272;-66
2022/11/15 07:52:02;;;;;;;0.00;0.00;;;10.40;99.90;;;;;;5054477;28;20174;-66
2022/11/15 07:54:27;;;;;;;0.00;0.00;;;10.40;99.90;;;;;;5054557;28;20184;-66
2022/11/15 07:56:53;;;;;;;0.00;0.00;;;10.40;99.90;;;;;;5054326;28;20177;-66
2022/11/15 07:59:19;;;;;;;0.00;0.00;;;10.50;99.90;;;;;;5054328;28;20210;-66
2022/11/15 08:01:45;;;;;;;0.00;0.00;;;10.60;99.90;;;;;;5054441;28;20178;-66
2022/11/15 08:04:11;;;;;;;0.05;0.05;;;10.60;99.90;;;;;;5054224;28;20180;-66
2022/11/15 08:06:37;;;;;;;0.43;0.38;;;10.70;99.90;;;;;;5054341;28;20189;-66
2022/11/15 08:09:03;;;;;;;0.13;0.13;;;10.70;99.90;;;;;;5054245;28;20200;-66
2022/11/15 08:11:28;;;;;;;0.30;0.30;;;10.80;99.90;;;;;;5052991;28;20186;-66
2022/11/15 08:13:54;;;;;;;0.00;0.00;;;10.80;99.90;;;;;;5053963;28;20229;-66
2022/11/15 08:16:19;;;;;;;0.50;0.50;;;10.90;99.90;;;;;;5054213;28;20177;-66
2022/11/15 08:18:45;;;;;;;0.00;0.00;;;11.00;99.90;;;;;;5054248;28;20247;-66
2022/11/15 08:21:17;;;;;;;0.00;0.00;;;11.10;99.90;;;;;;5053845;28;20185;-66
2022/11/15 08:23:43;;;;;;;0.00;0.00;;;11.10;99.90;;;;;;5054040;28;20207;-65
2022/11/15 08:26:08;;;;;;;0.00;0.00;;;11.20;99.90;;;;;;5053864;28;20181;-66
2022/11/15 08:28:34;;;;;;;2.35;0.40;;;11.20;99.90;;;;;;5053824;28;20173;-66
2022/11/15 08:31:00;;;;;;;0.00;0.00;;;11.30;99.90;;;;;;5053844;28;20588;-66
2022/11/15 08:33:25;;;;;;;0.08;0.08;;;11.40;99.90;;;;;;5053854;28;20586;-66
2022/11/15 08:35:51;;;;;;;0.05;0.05;;;11.50;99.90;;;;;;5053746;28;20185;-65
2022/11/15 08:38:16;;;;;;;0.10;0.10;;;11.60;99.90;;;;;;5053655;28;20231;-66
2022/11/15 08:40:42;;;;;;;0.00;0.00;;;11.70;99.90;;;;;;5053647;28;20581;-65
2022/11/15 08:43:07;;;;;;;0.00;0.00;;;11.80;99.90;;;;;;5053542;28;20165;-65
2022/11/15 08:45:35;;;;;;;0.20;0.20;;;11.90;99.90;;;;;;5053314;28;20181;-65
2022/11/15 08:48:03;;;;;;;0.00;0.00;;;12.10;99.90;;;;;;5053361;28;20605;-66
2022/11/15 08:50:29;;;;;;;0.00;0.00;;;12.20;99.90;;;;;;5053646;28;20178;-65
2022/11/15 08:52:54;;;;;;;0.32;0.32;;;12.30;99.90;;;;;;5053362;28;20609;-65
2022/11/15 08:55:20;;;;;;;0.00;0.00;;;12.30;99.90;;;;;;5053399;28;20226;-66
2022/11/15 08:57:45;;;;;;;0.00;0.00;;;12.40;99.90;;;;;;5053297;28;20177;-66
2022/11/15 09:00:13;;;;;;;0.00;0.00;;;12.50;99.90;;;;;;5053129;28;20217;-66
2022/11/15 09:02:39;;;;;;;0.00;0.00;;;12.60;99.90;;;;;;5053245;28;20280;-66
2022/11/15 09:05:06;;;;;;;0.00;0.00;;;12.60;99.90;;;;;;5053158;28;20644;-66
2022/11/15 09:07:31;;;;;;;0.10;0.10;;;12.60;99.90;;;;;;5051833;28;20549;-66
2022/11/15 09:09:57;;;;;;;0.00;0.00;;;12.70;99.90;;;;;;5053018;28;20177;-66
2022/11/15 09:12:24;;;;;;;0.03;0.03;;;12.70;99.90;;;;;;5052886;28;20237;-66
2022/11/15 09:14:50;;;;;;;0.00;0.00;;;12.80;99.90;;;;;;5052989;28;20660;-66
2022/11/15 09:17:15;;;;;;;0.00;0.00;;;12.90;99.90;;;;;;5052921;28;20319;-66
2022/11/15 09:19:41;;;;;;;0.03;0.03;;;12.90;99.90;;;;;;5052860;28;20247;-66
2022/11/15 09:22:07;;;;;;;0.00;0.00;;;13.00;99.90;;;;;;5052905;28;20656;-66
2022/11/15 09:24:34;;;;;;;0.00;0.00;;;13.00;99.90;;;;;;5052711;28;20173;-66
2022/11/15 09:26:59;;;;;;;0.00;0.00;;;13.00;99.90;;;;;;5052782;28;20183;-66
2022/11/15 09:29:25;;;;;;;0.05;0.05;;;13.10;99.90;;;;;;5052681;28;20178;-67
2022/11/15 09:31:54;;;;;;;0.00;0.00;;;13.20;99.90;;;;;;5052707;28;20182;-66
2022/11/15 09:34:20;;;;;;;0.10;0.10;;;13.30;99.90;;;;;;5052684;28;20184;-66
2022/11/15 09:36:46;;;;;;;0.00;0.00;;;13.40;99.90;;;;;;5052548;28;20227;-66
2022/11/15 09:39:12;;;;;;;0.55;0.55;;;13.50;99.90;;;;;;5052263;28;20225;-66
2022/11/15 09:41:50;;;;;;;0.05;0.05;;;13.50;99.90;;;;;;5052554;28;20177;-66
2022/11/15 09:44:32;;;;;;;0.00;0.00;;;13.60;99.90;;;;;;5052474;28;20177;-67
2022/11/15 09:47:28;;;;;;;0.00;0.00;;;13.70;99.90;;;;;;5052366;28;20528;-66
2022/11/15 09:49:58;;;;;;;0.00;0.00;;;13.80;99.90;;;;;;5052309;28;20264;-66
2022/11/15 09:52:24;;;;;;;0.00;0.00;;;13.90;99.90;;;;;;5052418;28;20176;-66
2022/11/15 09:54:51;;;;;;;0.00;0.00;;;14.00;99.90;;;;;;5052337;28;20188;-66
2022/11/15 09:57:18;;;;;;;0.00;0.00;;;14.10;99.90;;;;;;5051865;28;20276;-66
2022/11/15 09:59:52;;;;;;;0.00;0.00;;;14.20;99.90;;;;;;5052011;28;20209;-66
2022/11/15 10:03:09;;;;;;;0.20;0.20;;;14.30;99.90;;;;;;5052322;28;20177;-66
2022/11/15 10:05:43;;;;;;;0.00;0.00;;;14.30;99.90;;;;;;5051116;28;20530;-66
2022/11/15 10:08:31;;;;;;;0.00;0.00;;;14.40;99.90;;;;;;5052130;28;20177;-66
2022/11/15 10:10:59;;;;;;;0.00;0.00;;;14.40;99.90;;;;;;5052059;28;20712;-66
2022/11/15 10:13:29;;;;;;;0.00;0.00;;;14.50;99.90;;;;;;5051811;28;20225;-66
2022/11/15 10:16:26;;;;;;;0.00;0.00;;;14.50;99.90;;;;;;5051919;28;20649;-66
2022/11/15 10:19:14;;;;;;;0.00;0.00;;;14.50;99.90;;;;;;5051440;28;20198;-66
2022/11/15 10:22:07;;;;;;;0.00;0.00;;;14.60;99.90;;;;;;5051852;28;20185;-66
2022/11/15 10:24:43;;;;;;;0.00;0.00;;;14.60;99.90;;;;;;5052077;28;20177;-66
2022/11/15 10:27:17;;;;;;;0.00;0.00;;;14.60;99.90;;;;;;5052003;28;20195;-66
2022/11/15 10:29:50;;;;;;;0.05;0.05;;;14.70;99.90;;;;;;5051847;28;20181;-66
2022/11/15 10:32:20;;;;;;;0.00;0.00;;;14.70;99.90;;;;;;5051824;28;20177;-66
2022/11/15 10:34:47;;;;;;;0.00;0.00;;;14.80;99.90;;;;;;5051994;28;20177;-66
2022/11/15 10:37:13;;;;;;;0.00;0.00;;;14.80;99.90;;;;;;5051779;28;20645;-66
2022/11/15 10:39:38;;;;;;;0.00;0.00;;;14.90;99.90;;;;;;5051724;28;20212;-66
2022/11/15 10:42:25;;;;;;;0.00;0.00;;;14.90;99.90;;;;;;5051774;28;20170;-65
2022/11/15 10:44:51;;;;;;;0.00;0.00;;;14.90;99.90;;;;;;5051814;28;20640;-66
2022/11/15 10:47:22;;;;;;;0.00;0.00;;;14.90;99.90;;;;;;5050528;28;20181;-66
2022/11/15 10:50:25;;;;;;;0.05;0.05;;;14.90;99.90;;;;;;5051664;28;20544;-66
2022/11/15 10:52:51;;;;;;;0.00;0.00;;;14.90;99.90;;;;;;5051565;28;20181;-66
2022/11/15 10:55:17;;;;;;;0.00;0.00;;;14.90;99.90;;;;;;5050493;28;20223;-66
2022/11/15 10:57:52;;;;;;;0.00;0.00;;;14.90;99.90;;;;;;5051625;28;20217;-66
2022/11/15 11:00:21;;;;;;;0.00;0.00;;;14.90;99.90;;;;;;5051617;28;20270;-66
2022/11/15 11:02:57;;;;;;;0.00;0.00;;;14.90;99.90;;;;;;5051598;28;20181;-66
2022/11/15 11:05:36;;;;;;;0.17;0.17;;;14.80;99.90;;;;;;5051602;28;20204;-66
2022/11/15 11:08:05;;;;;;;0.00;0.00;;;14.80;99.90;;;;;;5051644;28;20214;-65
2022/11/15 11:10:31;;;;;;;0.13;0.10;;;14.80;99.90;;;;;;5053138;28;20184;-66
2022/11/15 11:13:13;;;;;;;0.00;0.00;;;14.90;99.90;;;;;;5054977;28;20757;-66
2022/11/15 11:15:40;;;;;;;0.00;0.00;;;14.90;99.90;;;;;;5055152;28;20205;-66
2022/11/15 11:18:27;;;;;;;0.00;0.00;;;14.90;99.90;;;;;;5055111;28;20269;-66
2022/11/15 11:21:03;;;;;;;0.00;0.00;;;15.00;99.90;;;;;;5050257;28;20703;-66
2022/11/15 11:23:41;;;;;;;0.05;0.05;;;15.00;99.90;;;;;;5035272;28;20193;-66
2022/11/15 11:26:26;;;;;;;0.00;0.00;;;15.00;99.90;;;;;;5034959;28;20661;-67
2022/11/15 11:29:02;;;;;;;0.00;0.00;;;15.10;99.90;;;;;;5046237;28;20220;-66
2022/11/15 11:31:52;;;;;;;0.20;0.17;;;15.10;99.90;;;;;;5055102;28;20174;-66
2022/11/15 11:34:39;;;;;;;0.00;0.00;;;15.10;99.90;;;;;;5055002;28;20177;-66
2022/11/15 11:37:26;;;;;;;0.00;0.00;;;15.20;99.90;;;;;;5054943;28;20650;-66
2022/11/15 11:40:17;;;;;;;0.00;0.00;;;15.30;99.90;;;;;;5054724;28;20209;-66
2022/11/15 11:43:02;;;;;;;0.00;0.00;;;15.40;99.90;;;;;;5054863;28;20177;-66
2022/11/15 11:45:33;;;;;;;0.00;0.00;;;15.50;99.90;;;;;;5054772;28;20530;-66
2022/11/15 11:48:14;;;;;;;0.30;0.30;;;15.50;99.90;;;;;;5054655;28;20269;-66
2022/11/15 11:50:42;;;;;;;0.00;0.00;;;15.50;99.90;;;;;;5054718;28;20186;-66
2022/11/15 11:53:17;;;;;;;0.00;0.00;;;15.50;99.90;;;;;;5054603;28;20185;-66
2022/11/15 11:55:47;;;;;;;0.00;0.00;;;15.50;99.90;;;;;;5054587;28;20192;-66
2022/11/15 11:58:15;;;;;;;0.00;0.00;;;15.50;99.90;;;;;;5054401;28;20268;-66
2022/11/15 12:00:46;;;;;;;0.00;0.00;;;15.60;99.90;;;;;;5054351;28;20259;-65
2022/11/15 12:03:43;;;;;;;0.00;0.00;;;15.60;99.90;;;;;;5054273;28;20235;-66
2022/11/15 12:06:30;;;;;;;0.00;0.00;;;15.60;99.90;;;;;;5054316;28;20192;-66
2022/11/15 12:09:11;;;;;;;0.10;0.10;;;15.60;99.90;;;;;;5054174;28;20180;-66
2022/11/15 12:12:09;;;;;;;0.00;0.00;;;15.70;99.90;;;;;;5054300;28;20292;-66
2022/11/15 12:14:53;;;;;;;0.00;0.00;;;15.60;99.90;;;;;;5054194;28;20193;-66
2022/11/15 12:17:25;;;;;;;0.00;0.00;;;15.60;99.90;;;;;;5054163;28;20178;-66
2022/11/15 12:19:58;;;;;;;0.00;0.00;;;15.60;99.90;;;;;;5053942;28;20236;-66
2022/11/15 12:23:01;;;;;;;0.00;0.00;;;15.60;99.90;;;;;;5052337;28;20173;-66
2022/11/15 12:25:27;;;;;;;0.00;0.00;;;15.60;99.90;;;;;;5054122;28;20427;-66
2022/11/15 12:27:58;;;;;;;0.20;0.20;;;15.50;99.90;;;;;;5053871;28;20313;-66
2022/11/15 12:30:27;;;;;;;0.00;0.00;;;15.50;99.90;;;;;;5054006;28;20177;-66
2022/11/15 12:32:56;;;;;;;0.05;0.05;;;15.40;99.90;;;;;;5053743;28;20177;-66
2022/11/15 12:35:27;;;;;;;0.00;0.00;;;15.40;99.90;;;;;;5053985;28;20181;-66
2022/11/15 12:37:57;;;;;;;0.00;0.00;;;15.30;99.90;;;;;;5053702;28;20181;-66
2022/11/15 12:40:31;;;;;;;0.00;0.00;;;15.30;99.90;;;;;;5053829;28;20256;-66
2022/11/15 12:42:58;;;;;;;0.00;0.00;;;15.30;99.90;;;;;;5053666;28;20178;-66
2022/11/15 12:45:27;;;;;;;0.10;0.10;;;15.20;99.90;;;;;;5052313;28;20185;-66
2022/11/15 12:47:53;;;;;;;0.10;0.10;;;15.20;99.90;;;;;;5053456;28;20170;-66
2022/11/15 12:50:50;;;;;;;0.05;0.05;;;15.10;99.90;;;;;;5053375;28;20192;-66
2022/11/15 12:53:25;;;;;;;0.00;0.00;;;15.10;99.90;;;;;;5053364;28;20212;-66
2022/11/15 12:56:02;;;;;;;0.00;0.00;;;15.00;99.90;;;;;;5053259;28;20180;-66
2022/11/15 12:58:48;;;;;;;0.00;0.00;;;14.90;99.90;;;;;;5053391;28;20511;-65
2022/11/15 13:01:37;;;;;;;0.00;0.00;;;14.90;99.90;;;;;;5053420;28;20181;-66
2022/11/15 13:04:21;;;;;;;0.00;0.00;;;14.90;99.90;;;;;;5053201;28;20169;-66
2022/11/15 13:06:55;;;;;;;0.00;0.00;;;14.90;99.90;;;;;;5053246;28;20264;-66
2022/11/15 13:09:33;;;;;;;0.00;0.00;;;14.90;99.90;;;;;;5053172;28;20204;-66
2022/11/15 13:12:01;;;;;;;0.00;0.00;;;15.00;99.90;;;;;;5052767;28;20205;-66
2022/11/15 13:14:43;;;;;;;0.13;0.10;;;14.90;99.90;;;;;;5053296;28;20231;-66
2022/11/15 13:17:19;;;;;;;0.00;0.00;;;15.00;99.90;;;;;;5052944;28;20196;-66
2022/11/15 13:20:00;;;;;;;0.00;0.00;;;15.00;99.90;;;;;;5053008;28;20212;-66
2022/11/15 13:22:52;;;;;;;0.00;0.00;;;15.10;99.90;;;;;;5033026;28;20672;-66
2022/11/15 13:25:23;;;;;;;0.10;0.10;;;15.20;99.90;;;;;;5033066;28;20185;-66
2022/11/15 13:27:50;;;;;;;0.00;0.00;;;15.20;99.90;;;;;;5035509;28;20228;-66
2022/11/15 13:30:27;;;;;;;0.00;0.00;;;15.30;99.90;;;;;;5052677;28;20180;-66
2022/11/15 13:32:53;;;;;;;0.00;0.00;;;15.40;99.90;;;;;;5051930;28;20173;-66
2022/11/15 13:35:21;;;;;;;0.00;0.00;;;15.40;99.90;;;;;;5052690;28;20721;-66
2022/11/15 13:37:47;;;;;;;0.00;0.00;;;15.50;99.90;;;;;;5052618;28;20193;-66
2022/11/15 13:40:30;;;;;;;0.00;0.00;;;15.50;99.90;;;;;;5052434;28;20236;-66
2022/11/15 13:42:56;;;;;;;0.00;0.00;;;15.50;99.90;;;;;;5052467;28;20644;-66
2022/11/15 13:45:23;;;;;;;0.00;0.00;;;15.50;99.90;;;;;;5052532;28;20526;-66
2022/11/15 13:47:58;;;;;;;0.00;0.00;;;15.50;99.90;;;;;;5052477;28;20219;-66
2022/11/15 13:50:29;;;;;;;0.00;0.00;;;15.40;99.90;;;;;;5052439;28;20640;-66
2022/11/15 13:53:00;;;;;;;0.00;0.00;;;15.30;99.90;;;;;;5052354;28;20261;-66
2022/11/15 13:55:26;;;;;;;0.00;0.00;;;15.30;99.90;;;;;;5052474;28;20243;-66
2022/11/15 13:57:55;;;;;;;0.00;0.00;;;15.30;99.90;;;;;;5052370;28;20178;-66
2022/11/15 14:00:43;;;;;;;0.08;0.08;;;15.30;99.90;;;;;;5052198;28;20664;-66
2022/11/15 14:03:20;;;;;;;0.10;0.10;;;15.30;99.90;;;;;;5052428;28;20279;-66
2022/11/15 14:06:11;;;;;;;0.10;0.10;;;15.20;99.90;;;;;;5052457;28;20201;-66
2022/11/15 14:08:38;;;;;;;0.28;0.10;;;15.20;99.90;;;;;;5052212;28;20169;-66
2022/11/15 14:11:08;;;;;;;0.00;0.00;;;15.20;99.90;;;;;;5052087;28;20524;-66
2022/11/15 14:13:34;;;;;;;0.00;0.00;;;15.20;99.90;;;;;;5051957;28;20221;-66
2022/11/15 14:16:18;;;;;;;0.00;0.00;;;15.20;99.90;;;;;;5052537;28;20177;-66
2022/11/15 14:18:51;;;;;;;0.00;0.00;;;15.20;99.90;;;;;;5052115;28;20653;-66
2022/11/15 14:21:19;;;;;;;0.52;0.20;;;15.10;99.90;;;;;;5051905;28;20559;-66
2022/11/15 14:23:44;;;;;;;0.10;0.10;;;15.10;99.90;;;;;;5052122;28;20640;-66
2022/11/15 14:26:31;;;;;;;0.00;0.00;;;15.00;99.90;;;;;;5051981;28;20225;-66
2022/11/15 14:28:57;;;;;;;0.05;0.05;;;14.90;99.90;;;;;;5051826;28;20173;-66
2022/11/15 14:31:22;;;;;;;0.03;0.00;;;14.80;99.90;;;;;;5051991;28;20525;-66